Time;durP1;ratioP1;P1;durP2;ratioP2;P2;SDS_P1;SDS_P2;PMS_P1;PMS_P2;Temp;Humidity;BMP_temperature;BMP_pressure;BME280_temperature;BME280_humidity;BME280_pressure;Samples;Min_cycle;Max_cycle;Signal;HPM_P1;HPM_P2
2021/10/24 04:32:30;;;;;;;10.50;5.27;;;0.30;99.90;;;;;;5161203;23;20500;-71
2021/10/24 04:34:56;;;;;;;9.37;5.70;;;0.30;99.90;;;;;;4979857;28;20439;-71
2021/10/24 04:37:21;;;;;;;6.80;5.10;;;0.20;99.90;;;;;;4989740;28;20247;-73
2021/10/24 04:39:47;;;;;;;6.47;4.73;;;0.30;99.90;;;;;;4993221;28;20253;-73
2021/10/24 04:42:13;;;;;;;8.70;4.50;;;0.30;99.90;;;;;;4974093;28;20224;-74
2021/10/24 04:44:38;;;;;;;7.90;4.27;;;0.20;99.90;;;;;;4973785;28;20186;-74
2021/10/24 04:47:04;;;;;;;9.10;5.83;;;0.20;99.90;;;;;;4973483;28;20423;-73
2021/10/24 04:49:30;;;;;;;6.07;4.50;;;0.20;99.90;;;;;;4969739;28;20608;-73
2021/10/24 04:51:57;;;;;;;6.53;4.57;;;0.30;99.90;;;;;;4973673;28;20207;-74
2021/10/24 04:54:23;;;;;;;10.03;4.83;;;0.40;99.90;;;;;;4971046;28;20453;-74
2021/10/24 04:56:53;;;;;;;6.73;4.30;;;0.30;99.90;;;;;;4971497;28;20467;-74
2021/10/24 04:59:19;;;;;;;6.80;4.00;;;0.20;99.90;;;;;;4969026;28;20427;-73
2021/10/24 05:01:45;;;;;;;8.37;4.10;;;0.20;99.90;;;;;;4971735;28;20448;-72
2021/10/24 05:04:11;;;;;;;6.27;4.50;;;0.10;99.90;;;;;;4966313;28;20426;-73
2021/10/24 05:06:38;;;;;;;5.33;4.83;;;0.10;99.90;;;;;;4973505;28;20390;-74
2021/10/24 05:09:04;;;;;;;8.80;4.87;;;0.10;99.90;;;;;;4970973;28;20458;-74
2021/10/24 05:11:29;;;;;;;8.20;5.70;;;0.10;99.90;;;;;;4965964;28;20534;-74
2021/10/24 05:13:55;;;;;;;4.20;3.80;;;0.10;99.90;;;;;;4970212;28;20558;-74
2021/10/24 05:16:21;;;;;;;9.23;4.37;;;0.10;99.90;;;;;;4973073;28;20211;-74
2021/10/24 05:18:46;;;;;;;5.80;4.00;;;0.10;99.90;;;;;;4972113;28;20390;-74
2021/10/24 05:21:12;;;;;;;7.50;5.03;;;0.10;99.90;;;;;;4969860;28;20568;-72
2021/10/24 05:23:37;;;;;;;9.63;4.80;;;0.10;99.90;;;;;;4972866;28;20175;-74
2021/10/24 05:26:04;;;;;;;7.40;5.20;;;0.00;99.90;;;;;;4968421;28;20677;-73
2021/10/24 05:28:31;;;;;;;7.37;4.47;;;0.00;99.90;;;;;;4972993;28;20186;-74
2021/10/24 05:30:57;;;;;;;4.87;4.37;;;0.00;99.90;;;;;;4968790;28;20444;-74
2021/10/24 05:33:22;;;;;;;15.30;4.87;;;0.00;99.90;;;;;;4970289;28;20962;-73
2021/10/24 05:35:49;;;;;;;6.27;4.80;;;0.00;99.90;;;;;;4968447;28;20267;-74
2021/10/24 05:38:15;;;;;;;7.33;4.87;;;0.00;99.90;;;;;;4972686;28;20196;-74
2021/10/24 05:40:41;;;;;;;7.47;4.53;;;0.00;99.90;;;;;;4969111;28;20484;-74
2021/10/24 05:43:07;;;;;;;10.20;4.67;;;0.00;99.90;;;;;;4971272;28;20623;-73
2021/10/24 05:45:34;;;;;;;5.57;4.17;;;0.00;99.90;;;;;;4970669;28;20452;-74
2021/10/24 05:47:59;;;;;;;6.63;4.83;;;0.00;99.90;;;;;;4972832;28;20415;-74
2021/10/24 05:50:25;;;;;;;6.03;4.43;;;0.00;99.90;;;;;;4971011;28;20405;-74
2021/10/24 05:52:50;;;;;;;6.73;4.50;;;0.00;99.90;;;;;;4970047;28;20299;-73
2021/10/24 05:55:17;;;;;;;4.67;4.13;;;0.00;99.90;;;;;;4972631;28;20223;-72
2021/10/24 05:57:42;;;;;;;6.97;4.30;;;0.10;99.90;;;;;;4970544;28;20180;-71
2021/10/24 06:00:09;;;;;;;6.60;4.40;;;0.10;99.90;;;;;;4972562;28;20440;-71
2021/10/24 06:02:34;;;;;;;6.33;4.80;;;0.10;99.90;;;;;;4968181;28;20200;-71
2021/10/24 06:05:00;;;;;;;10.60;5.70;;;0.20;99.90;;;;;;4972612;28;20420;-71
2021/10/24 06:07:26;;;;;;;5.63;5.00;;;0.20;99.90;;;;;;4970296;28;20248;-71
2021/10/24 06:09:56;;;;;;;5.20;4.07;;;0.20;99.90;;;;;;4972555;28;20258;-71
2021/10/24 06:15:00;;;;;;;6.20;4.30;;;0.20;99.90;;;;;;4972552;28;20761;-71
2021/10/24 06:17:26;;;;;;;6.30;4.80;;;0.30;99.90;;;;;;4970198;28;20515;-72
2021/10/24 06:19:51;;;;;;;10.20;5.40;;;0.30;99.90;;;;;;4972223;28;20557;-72
2021/10/24 06:22:17;;;;;;;12.73;4.67;;;0.30;99.90;;;;;;4969924;28;20444;-70
2021/10/24 06:24:42;;;;;;;8.50;4.73;;;0.40;99.90;;;;;;4970293;28;20184;-70
2021/10/24 06:27:08;;;;;;;7.83;5.53;;;0.40;99.90;;;;;;4969639;28;20243;-71
2021/10/24 06:29:34;;;;;;;7.73;4.57;;;0.40;99.90;;;;;;4972224;28;20251;-71
2021/10/24 06:32:00;;;;;;;6.43;4.10;;;0.40;99.90;;;;;;4972126;28;20219;-68
2021/10/24 06:34:25;;;;;;;7.50;5.20;;;0.50;99.90;;;;;;4965538;28;20418;-71
2021/10/24 06:36:51;;;;;;;6.07;4.20;;;0.50;99.90;;;;;;4972444;28;20240;-71
2021/10/24 06:39:17;;;;;;;8.17;4.97;;;0.50;99.90;;;;;;4969989;28;20186;-71
2021/10/24 06:41:43;;;;;;;7.90;4.03;;;0.60;99.90;;;;;;4970109;28;20887;-72
2021/10/24 06:44:08;;;;;;;6.03;4.67;;;0.70;99.90;;;;;;4967687;28;20188;-72
2021/10/24 06:46:34;;;;;;;8.27;4.27;;;0.70;99.90;;;;;;4974274;28;20215;-71
2021/10/24 06:49:00;;;;;;;10.00;5.33;;;0.80;99.90;;;;;;4973542;28;20196;-72
2021/10/24 06:51:25;;;;;;;5.40;4.70;;;0.90;99.90;;;;;;4975648;28;20251;-71
2021/10/24 06:53:51;;;;;;;7.10;4.87;;;1.00;99.90;;;;;;4973401;28;20199;-72
2021/10/24 06:56:16;;;;;;;5.97;4.57;;;1.10;99.90;;;;;;4969037;28;20212;-72
2021/10/24 06:58:42;;;;;;;5.10;4.33;;;1.20;99.90;;;;;;4972077;28;20271;-71
2021/10/24 07:01:07;;;;;;;7.53;4.03;;;1.80;99.90;;;;;;4975137;28;20266;-72
2021/10/24 07:03:33;;;;;;;6.17;3.87;;;3.50;99.90;;;;;;4975275;28;20188;-72
2021/10/24 07:05:58;;;;;;;3.90;3.60;;;5.40;99.90;;;;;;4971313;28;20267;-74
2021/10/24 07:08:24;;;;;;;4.60;3.47;;;7.10;99.90;;;;;;4975070;28;20082;-71
2021/10/24 07:10:49;;;;;;;7.23;3.23;;;8.80;99.90;;;;;;4971405;28;20474;-73
2021/10/24 07:13:15;;;;;;;4.00;3.10;;;10.30;99.90;;;;;;4969751;28;20459;-72
2021/10/24 07:15:40;;;;;;;9.10;2.90;;;10.50;99.90;;;;;;4971198;28;20583;-74
2021/10/24 07:18:06;;;;;;;7.60;3.70;;;11.40;99.90;;;;;;4975045;28;20322;-74
2021/10/24 07:20:31;;;;;;;4.17;2.97;;;12.10;99.90;;;;;;4972913;28;20242;-73
2021/10/24 07:22:57;;;;;;;5.47;2.93;;;12.50;99.90;;;;;;4974964;28;20180;-69
2021/10/24 07:25:25;;;;;;;4.10;3.80;;;13.00;99.90;;;;;;4972778;28;20177;-71
2021/10/24 07:27:51;;;;;;;6.00;5.40;;;13.50;99.90;;;;;;4961044;28;20207;-73
2021/10/24 07:30:16;;;;;;;6.47;3.93;;;13.10;99.90;;;;;;4963733;28;20431;-72
2021/10/24 07:32:43;;;;;;;6.80;4.93;;;13.00;99.90;;;;;;4965277;28;20455;-74
2021/10/24 07:35:09;;;;;;;10.30;5.30;;;13.30;99.90;;;;;;4970489;28;20188;-70
2021/10/24 07:37:35;;;;;;;5.93;4.60;;;13.40;99.90;;;;;;4972791;28;20443;-70
2021/10/24 07:40:00;;;;;;;6.60;5.93;;;13.70;99.90;;;;;;4974831;28;20411;-71
2021/10/24 07:42:27;;;;;;;5.73;5.20;;;13.90;99.90;;;;;;4972275;28;20208;-70
2021/10/24 07:44:53;;;;;;;8.20;5.03;;;13.60;99.90;;;;;;4974878;28;20200;-70
2021/10/24 07:47:19;;;;;;;7.23;5.13;;;12.80;99.90;;;;;;4968071;28;20474;-71
2021/10/24 07:49:44;;;;;;;11.80;5.30;;;12.10;99.90;;;;;;4974598;28;20176;-70
2021/10/24 07:52:10;;;;;;;13.63;6.73;;;11.60;99.90;;;;;;4971905;28;20262;-70
2021/10/24 07:54:35;;;;;;;9.07;5.40;;;11.10;99.90;;;;;;4974613;28;20738;-72
2021/10/24 07:57:01;;;;;;;12.70;6.33;;;11.00;99.90;;;;;;4969378;28;20227;-71
2021/10/24 07:59:27;;;;;;;11.43;6.70;;;10.80;99.90;;;;;;4974028;28;20188;-71
2021/10/24 08:01:53;;;;;;;15.03;6.50;;;10.70;99.90;;;;;;4972760;28;20202;-71
2021/10/24 08:04:19;;;;;;;9.87;6.60;;;10.80;99.90;;;;;;4954668;28;20288;-69
2021/10/24 08:06:44;;;;;;;12.20;7.40;;;10.80;99.90;;;;;;4955214;28;20499;-72
2021/10/24 08:09:11;;;;;;;8.10;7.30;;;10.70;99.90;;;;;;4968954;28;20445;-73
2021/10/24 08:11:38;;;;;;;8.23;7.10;;;10.80;99.90;;;;;;4972397;28;20214;-72
2021/10/24 08:14:06;;;;;;;10.07;7.77;;;10.90;99.90;;;;;;4971803;28;20491;-71
2021/10/24 08:16:32;;;;;;;7.77;6.63;;;11.00;99.90;;;;;;4974242;28;20524;-72
2021/10/24 08:18:58;;;;;;;8.10;6.13;;;11.20;99.90;;;;;;4970187;28;20435;-72
2021/10/24 08:21:24;;;;;;;7.97;6.63;;;11.50;99.90;;;;;;4973855;28;20462;-72
2021/10/24 08:23:49;;;;;;;10.90;6.27;;;11.60;99.90;;;;;;4971637;28;20268;-72
2021/10/24 08:26:19;;;;;;;12.33;6.67;;;11.60;99.90;;;;;;4971913;28;20550;-72
2021/10/24 08:28:49;;;;;;;5.13;4.63;;;11.50;99.90;;;;;;4971885;28;20168;-71
2021/10/24 08:31:16;;;;;;;7.03;5.87;;;11.60;99.90;;;;;;4971547;28;20505;-71
2021/10/24 08:33:43;;;;;;;7.27;5.60;;;11.60;99.90;;;;;;4970923;28;20538;-70
2021/10/24 08:36:09;;;;;;;9.30;6.57;;;11.70;99.90;;;;;;4971275;28;20506;-71
2021/10/24 08:38:35;;;;;;;7.87;5.73;;;11.90;99.90;;;;;;4973767;28;20513;-71
2021/10/24 08:41:02;;;;;;;12.87;7.03;;;12.00;99.90;;;;;;4966722;28;20233;-71
2021/10/24 08:43:31;;;;;;;10.07;5.73;;;12.20;99.90;;;;;;4972068;28;20176;-68
2021/10/24 08:46:00;;;;;;;13.93;6.27;;;12.40;99.90;;;;;;4971611;28;20975;-72
2021/10/24 08:48:26;;;;;;;6.70;5.50;;;12.60;99.90;;;;;;4973382;28;20423;-73
2021/10/24 08:50:52;;;;;;;8.47;6.10;;;12.60;99.90;;;;;;4970264;28;20559;-72
2021/10/24 08:53:23;;;;;;;16.60;7.13;;;13.00;99.90;;;;;;4972584;28;20211;-73
2021/10/24 08:55:48;;;;;;;8.70;6.17;;;13.00;99.90;;;;;;4969319;28;20274;-72
2021/10/24 08:58:15;;;;;;;7.70;6.00;;;13.40;99.90;;;;;;4970898;28;20449;-72
2021/10/24 09:00:41;;;;;;;10.43;6.30;;;13.60;99.90;;;;;;4971225;28;20590;-73
2021/10/24 09:03:09;;;;;;;9.13;5.87;;;13.70;99.90;;;;;;4970504;28;20466;-72
2021/10/24 09:05:40;;;;;;;11.47;6.73;;;14.20;99.90;;;;;;4971992;28;20434;-72
2021/10/24 09:08:07;;;;;;;7.40;5.40;;;14.40;99.90;;;;;;4972938;28;20498;-72
2021/10/24 09:10:40;;;;;;;5.30;4.80;;;14.40;99.90;;;;;;4973202;28;20438;-71
2021/10/24 09:13:08;;;;;;;6.03;5.23;;;14.50;99.90;;;;;;4968607;28;20838;-72
2021/10/24 09:15:52;;;;;;;5.93;5.43;;;14.60;99.90;;;;;;4973474;28;20884;-72
2021/10/24 09:18:20;;;;;;;8.10;5.87;;;14.50;99.90;;;;;;4971101;28;20439;-73
2021/10/24 09:20:46;;;;;;;10.77;6.07;;;14.50;99.90;;;;;;4973329;28;20499;-72
2021/10/24 09:23:14;;;;;;;6.73;4.93;;;14.60;99.90;;;;;;4968893;28;20527;-72
2021/10/24 09:25:53;;;;;;;8.50;6.47;;;14.80;99.90;;;;;;4973223;28;20251;-72
2021/10/24 09:28:20;;;;;;;10.20;5.60;;;14.50;99.90;;;;;;4968697;28;20435;-72
2021/10/24 09:30:48;;;;;;;10.93;5.77;;;14.30;99.90;;;;;;4972862;28;20415;-73
2021/10/24 09:33:17;;;;;;;6.50;5.90;;;14.40;99.90;;;;;;4967481;28;20436;-72
2021/10/24 09:35:46;;;;;;;6.30;5.70;;;14.80;99.90;;;;;;4969902;28;21034;-72
2021/10/24 09:38:24;;;;;;;10.57;5.97;;;14.70;99.90;;;;;;4970779;28;20466;-72
2021/10/24 09:40:54;;;;;;;8.97;7.03;;;15.00;99.90;;;;;;4972878;28;20988;-72
2021/10/24 09:43:25;;;;;;;6.83;5.10;;;14.90;99.90;;;;;;4968589;28;21099;-72
2021/10/24 09:45:57;;;;;;;10.03;6.23;;;14.80;99.90;;;;;;4971461;28;20849;-73
2021/10/24 09:48:26;;;;;;;6.20;4.90;;;14.90;99.90;;;;;;4972293;28;20422;-71
2021/10/24 09:50:54;;;;;;;6.47;5.20;;;15.20;99.90;;;;;;4971396;28;20585;-73
2021/10/24 09:53:30;;;;;;;7.33;5.50;;;15.40;99.90;;;;;;4972294;28;20407;-71
2021/10/24 09:55:56;;;;;;;7.57;5.27;;;15.30;99.90;;;;;;4964365;28;20464;-72
2021/10/24 09:58:49;;;;;;;6.67;5.43;;;15.10;99.90;;;;;;4971490;28;20426;-73
2021/10/24 10:01:16;;;;;;;7.90;4.87;;;15.10;99.90;;;;;;4967333;28;20227;-72
2021/10/24 10:03:44;;;;;;;5.23;4.73;;;15.40;99.90;;;;;;4972155;28;20431;-72
2021/10/24 10:06:09;;;;;;;7.53;5.23;;;15.70;99.90;;;;;;4968373;28;20832;-72
2021/10/24 10:08:39;;;;;;;8.60;6.07;;;16.10;99.90;;;;;;4972528;28;20416;-72
2021/10/24 10:11:24;;;;;;;8.30;6.13;;;16.20;99.90;;;;;;4969744;28;20211;-72
2021/10/24 10:14:02;;;;;;;6.70;6.00;;;16.40;99.90;;;;;;4953044;28;20803;-72
2021/10/24 10:16:34;;;;;;;8.30;4.93;;;16.80;99.90;;;;;;4961255;28;20898;-73
2021/10/24 10:19:06;;;;;;;7.20;4.13;;;16.70;99.90;;;;;;4953214;28;20780;-73
2021/10/24 10:21:47;;;;;;;9.13;5.30;;;16.70;99.90;;;;;;4962796;28;20589;-72
2021/10/24 10:24:34;;;;;;;7.33;4.57;;;16.40;99.90;;;;;;4975933;28;20415;-72
2021/10/24 10:27:03;;;;;;;7.90;5.03;;;16.80;99.90;;;;;;4971818;28;20474;-73
2021/10/24 10:30:09;;;;;;;8.60;5.43;;;16.90;99.90;;;;;;4975837;28;20430;-72
2021/10/24 10:32:39;;;;;;;4.70;4.30;;;17.00;99.90;;;;;;4915209;29;20492;-72
2021/10/24 10:35:07;;;;;;;5.30;4.20;;;17.00;99.90;;;;;;4961599;28;20457;-71
2021/10/24 10:37:49;;;;;;;5.63;3.60;;;17.00;99.90;;;;;;4973500;28;20473;-71
2021/10/24 10:40:19;;;;;;;8.03;5.03;;;17.10;99.90;;;;;;4974304;28;20822;-70
2021/10/24 10:42:45;;;;;;;5.37;4.17;;;16.90;99.90;;;;;;4971696;28;20493;-71
2021/10/24 10:45:16;;;;;;;4.57;3.80;;;16.60;99.90;;;;;;4975727;28;20435;-70
2021/10/24 10:47:59;;;;;;;4.37;4.00;;;16.90;99.90;;;;;;4973828;28;20510;-70
2021/10/24 10:50:31;;;;;;;6.73;3.90;;;16.90;99.90;;;;;;4973725;28;20519;-70
2021/10/24 10:52:57;;;;;;;5.80;3.80;;;16.70;99.90;;;;;;4973226;28;20422;-70
2021/10/24 10:55:24;;;;;;;7.20;4.30;;;16.80;99.90;;;;;;4975525;28;20409;-70
2021/10/24 10:57:50;;;;;;;6.30;4.60;;;16.70;99.90;;;;;;4972365;28;20530;-69
2021/10/24 11:00:54;;;;;;;5.17;3.60;;;16.80;99.90;;;;;;4972547;28;20474;-70
2021/10/24 11:03:44;;;;;;;6.07;3.87;;;16.60;99.90;;;;;;4964067;28;21086;-70
2021/10/24 11:06:11;;;;;;;12.73;3.90;;;17.00;99.90;;;;;;4956163;28;20405;-70
2021/10/24 11:08:48;;;;;;;6.50;4.10;;;17.10;99.90;;;;;;4956014;28;20409;-70
2021/10/24 11:11:14;;;;;;;9.20;4.33;;;16.70;99.90;;;;;;4962541;28;20490;-69
2021/10/24 11:13:41;;;;;;;4.43;3.63;;;16.30;99.90;;;;;;4971471;28;20525;-70
2021/10/24 11:16:29;;;;;;;7.43;4.13;;;16.20;99.90;;;;;;4973559;28;20817;-70
2021/10/24 11:18:54;;;;;;;6.40;4.17;;;16.50;99.90;;;;;;4975209;28;20419;-71
2021/10/24 11:21:29;;;;;;;4.30;3.47;;;16.50;99.90;;;;;;4970906;28;20449;-71
2021/10/24 11:23:59;;;;;;;4.50;3.50;;;16.30;99.90;;;;;;4974985;28;20175;-71
2021/10/24 11:26:25;;;;;;;4.73;3.30;;;16.40;99.90;;;;;;4968644;28;20505;-71
2021/10/24 11:28:51;;;;;;;3.87;3.03;;;16.40;99.90;;;;;;4975029;28;20492;-71
2021/10/24 11:31:20;;;;;;;4.23;3.10;;;16.30;99.90;;;;;;4970563;28;20478;-71
2021/10/24 11:33:50;;;;;;;5.83;4.00;;;16.00;99.90;;;;;;4972583;28;20445;-70
2021/10/24 11:36:23;;;;;;;3.97;2.87;;;16.00;99.90;;;;;;4970563;28;20489;-71
2021/10/24 11:38:54;;;;;;;5.17;3.27;;;16.00;99.90;;;;;;4974881;28;20960;-71
2021/10/24 11:41:20;;;;;;;4.80;3.50;;;16.10;99.90;;;;;;4970440;28;20827;-70
2021/10/24 11:43:48;;;;;;;5.37;3.60;;;15.90;99.90;;;;;;4972892;28;20553;-70
2021/10/24 11:46:13;;;;;;;4.03;3.37;;;15.80;99.90;;;;;;4972886;28;20423;-70
2021/10/24 11:48:40;;;;;;;3.37;3.00;;;15.70;99.90;;;;;;4974715;28;20415;-69
2021/10/24 11:51:07;;;;;;;8.77;4.00;;;15.70;99.90;;;;;;4974649;28;20192;-71
2021/10/24 11:53:45;;;;;;;10.57;5.07;;;15.60;99.90;;;;;;4970513;28;20431;-71
2021/10/24 11:56:16;;;;;;;4.33;3.20;;;15.60;99.90;;;;;;4973441;28;20464;-72
2021/10/24 12:01:21;;;;;;;3.80;3.33;;;15.50;99.90;;;;;;4974440;28;20431;-72
2021/10/24 12:04:03;;;;;;;5.00;3.47;;;15.30;99.90;;;;;;4970215;28;20431;-71
2021/10/24 12:06:52;;;;;;;4.80;4.10;;;15.30;99.90;;;;;;4974395;28;20421;-71
2021/10/24 12:09:44;;;;;;;7.17;4.20;;;15.40;99.90;;;;;;4971986;28;20435;-71
2021/10/24 12:12:22;;;;;;;8.10;3.43;;;15.30;99.90;;;;;;4971700;28;20462;-70
2021/10/24 12:15:02;;;;;;;12.23;3.57;;;15.40;99.90;;;;;;4973245;28;20415;-72
2021/10/24 12:17:36;;;;;;;4.90;3.07;;;15.40;99.90;;;;;;4974277;28;20463;-71
2021/10/24 12:20:20;;;;;;;5.40;3.57;;;15.30;99.90;;;;;;4973254;28;20438;-71
2021/10/24 12:22:45;;;;;;;5.90;3.50;;;15.20;99.90;;;;;;4973746;28;20489;-72
2021/10/24 12:25:14;;;;;;;4.50;3.10;;;15.10;99.90;;;;;;4969899;28;20940;-71
2021/10/24 12:27:42;;;;;;;4.63;4.33;;;15.10;99.90;;;;;;4973712;28;20188;-71
2021/10/24 12:30:09;;;;;;;5.90;3.70;;;15.00;99.90;;;;;;4969746;28;20427;-72
2021/10/24 12:32:36;;;;;;;6.60;3.90;;;14.90;99.90;;;;;;4973533;28;20447;-72
2021/10/24 12:35:08;;;;;;;3.23;3.03;;;14.80;99.90;;;;;;4969438;28;20443;-72
2021/10/24 12:37:37;;;;;;;4.33;3.93;;;14.90;99.90;;;;;;4973919;28;20548;-69
2021/10/24 12:40:23;;;;;;;4.43;3.43;;;14.90;99.90;;;;;;4969610;28;20431;-73
2021/10/24 12:43:17;;;;;;;3.97;3.53;;;15.00;99.90;;;;;;4971269;28;20497;-72
2021/10/24 12:45:45;;;;;;;4.33;3.30;;;15.00;99.90;;;;;;4957395;28;20973;-72
2021/10/24 12:48:12;;;;;;;6.33;3.37;;;14.90;99.90;;;;;;4973446;28;20899;-73
2021/10/24 12:50:39;;;;;;;3.93;3.10;;;14.90;99.90;;;;;;4971918;28;20435;-71
2021/10/24 12:53:07;;;;;;;6.13;3.67;;;14.90;99.90;;;;;;4973134;28;20420;-72
2021/10/24 12:55:33;;;;;;;7.20;3.60;;;15.00;99.90;;;;;;4970036;28;20553;-71
2021/10/24 12:58:00;;;;;;;5.10;3.00;;;14.90;99.90;;;;;;4961471;28;20423;-72
2021/10/24 13:00:30;;;;;;;6.07;3.57;;;14.90;99.90;;;;;;4965954;28;20487;-73
2021/10/24 13:02:56;;;;;;;3.63;3.30;;;15.00;99.90;;;;;;4970369;28;20455;-72
2021/10/24 13:05:23;;;;;;;5.97;3.17;;;15.00;99.90;;;;;;4971070;28;20423;-73
2021/10/24 13:07:49;;;;;;;3.03;2.77;;;15.00;99.90;;;;;;4973490;28;20501;-72
2021/10/24 13:10:15;;;;;;;3.63;2.83;;;14.90;99.90;;;;;;4971177;28;20546;-72
2021/10/24 13:12:41;;;;;;;4.57;3.40;;;14.80;99.90;;;;;;4967031;28;20204;-72
2021/10/24 13:15:07;;;;;;;6.97;3.13;;;14.80;99.90;;;;;;4972922;28;20439;-73
2021/10/24 13:17:32;;;;;;;4.20;2.87;;;14.80;99.90;;;;;;4954907;28;21017;-72
2021/10/24 13:19:58;;;;;;;3.87;2.80;;;14.90;99.90;;;;;;4953757;28;20177;-68
2021/10/24 13:25:08;;;;;;;5.97;3.10;;;14.90;99.90;;;;;;4973082;28;20230;-69
2021/10/24 13:27:33;;;;;;;3.30;2.90;;;14.80;99.90;;;;;;4967843;28;20533;-70
2021/10/24 13:29:59;;;;;;;3.23;2.90;;;14.80;99.90;;;;;;4972955;28;20210;-71
2021/10/24 13:32:24;;;;;;;6.57;2.93;;;14.80;99.90;;;;;;4968358;28;20728;-71
2021/10/24 13:34:50;;;;;;;4.37;3.93;;;14.90;99.90;;;;;;4972926;28;20192;-71
2021/10/24 13:37:15;;;;;;;5.47;3.30;;;14.90;99.90;;;;;;4970655;28;20204;-71
2021/10/24 13:39:41;;;;;;;4.30;3.83;;;14.80;99.90;;;;;;4973045;28;20168;-70
2021/10/24 13:42:07;;;;;;;5.10;3.50;;;14.80;99.90;;;;;;4970451;28;20192;-71
2021/10/24 13:44:33;;;;;;;3.90;3.00;;;14.80;99.90;;;;;;4970766;28;20188;-71
2021/10/24 13:46:58;;;;;;;4.60;2.87;;;14.90;99.90;;;;;;4971164;28;20180;-72
2021/10/24 13:49:24;;;;;;;2.87;2.67;;;14.90;99.90;;;;;;4972607;28;20263;-70
2021/10/24 13:51:49;;;;;;;6.33;3.80;;;14.90;99.90;;;;;;4972696;28;20275;-71
2021/10/24 13:54:15;;;;;;;4.00;3.60;;;14.90;99.90;;;;;;4968390;28;20560;-71
2021/10/24 13:56:40;;;;;;;6.87;3.40;;;14.90;99.90;;;;;;4969759;28;20244;-70
2021/10/24 13:59:06;;;;;;;4.90;3.07;;;14.90;99.90;;;;;;4970436;28;20214;-70
2021/10/24 14:01:32;;;;;;;5.93;3.97;;;14.80;99.90;;;;;;4972642;28;20196;-71
2021/10/24 14:03:58;;;;;;;4.27;3.87;;;14.80;99.90;;;;;;4961473;28;20196;-72
2021/10/24 14:06:26;;;;;;;6.47;3.70;;;14.80;99.90;;;;;;4972535;28;20808;-71
2021/10/24 14:08:52;;;;;;;5.27;3.53;;;14.80;99.90;;;;;;4968917;28;21031;-72
2021/10/24 14:11:20;;;;;;;7.70;3.90;;;14.80;99.90;;;;;;4968978;28;20458;-71
2021/10/24 14:13:46;;;;;;;3.53;3.20;;;14.80;99.90;;;;;;4965475;28;20443;-72
2021/10/24 14:16:12;;;;;;;6.80;3.60;;;14.80;99.90;;;;;;4972435;28;20464;-71
2021/10/24 14:18:38;;;;;;;6.50;3.17;;;14.80;99.90;;;;;;4970735;28;20444;-71
2021/10/24 14:21:04;;;;;;;6.57;4.57;;;14.80;99.90;;;;;;4972481;28;20435;-70
2021/10/24 14:23:30;;;;;;;6.80;3.63;;;14.80;99.90;;;;;;4971262;28;20581;-70
2021/10/24 14:25:55;;;;;;;4.93;3.03;;;14.80;99.90;;;;;;4969443;28;20191;-71
2021/10/24 14:28:21;;;;;;;4.83;3.53;;;14.80;99.90;;;;;;4970125;28;20200;-71
2021/10/24 14:30:46;;;;;;;4.07;3.57;;;14.80;99.90;;;;;;4969881;28;20262;-71
2021/10/24 14:33:12;;;;;;;6.27;4.27;;;14.80;99.90;;;;;;4971986;28;20179;-71
2021/10/24 14:35:37;;;;;;;5.70;3.40;;;14.80;99.90;;;;;;4959962;28;20290;-71
2021/10/24 14:38:03;;;;;;;5.00;3.60;;;14.80;99.90;;;;;;4957316;28;20681;-70
2021/10/24 14:40:29;;;;;;;5.27;3.93;;;14.70;99.90;;;;;;4965058;28;20414;-68
2021/10/24 14:42:55;;;;;;;5.47;3.47;;;14.70;99.90;;;;;;4962628;28;20300;-71
2021/10/24 14:45:22;;;;;;;3.77;3.40;;;14.60;99.90;;;;;;4969550;28;20290;-71
2021/10/24 14:47:47;;;;;;;4.90;3.50;;;14.60;99.90;;;;;;4960513;28;20847;-70
2021/10/24 14:50:14;;;;;;;3.93;3.17;;;14.60;99.90;;;;;;4955167;28;20459;-71
2021/10/24 14:52:40;;;;;;;6.27;3.07;;;14.60;99.90;;;;;;4960364;28;20220;-73
2021/10/24 14:55:06;;;;;;;4.90;2.77;;;14.50;99.90;;;;;;4952059;28;20971;-72
2021/10/24 14:57:32;;;;;;;5.60;3.83;;;14.50;99.90;;;;;;4965047;28;20271;-73
2021/10/24 14:59:57;;;;;;;3.67;3.27;;;14.50;99.90;;;;;;4962172;28;20504;-72
2021/10/24 15:02:23;;;;;;;3.57;3.10;;;14.50;99.90;;;;;;4953864;28;20236;-72
2021/10/24 15:04:49;;;;;;;5.73;3.17;;;14.50;99.90;;;;;;4954698;28;20211;-73
2021/10/24 15:07:14;;;;;;;3.07;2.80;;;14.50;99.90;;;;;;4958587;28;20239;-70
2021/10/24 15:09:40;;;;;;;2.90;2.60;;;14.50;99.90;;;;;;4963445;28;20208;-71
2021/10/24 15:12:07;;;;;;;6.37;3.83;;;14.50;99.90;;;;;;4960391;28;20212;-72
2021/10/24 15:14:35;;;;;;;9.57;3.90;;;14.40;99.90;;;;;;4966165;28;20456;-71
2021/10/24 15:17:06;;;;;;;4.90;3.47;;;14.40;99.90;;;;;;4962400;28;20475;-71
2021/10/24 15:21:57;;;;;;;5.90;4.60;;;14.20;99.90;;;;;;4963003;28;20464;-70
2021/10/24 15:24:22;;;;;;;12.37;5.90;;;14.20;99.90;;;;;;4962228;28;20690;-71
2021/10/24 15:26:51;;;;;;;15.63;6.73;;;14.10;99.90;;;;;;4962892;28;20199;-70
2021/10/24 15:29:17;;;;;;;9.63;7.20;;;13.90;99.90;;;;;;4964176;28;20220;-72
2021/10/24 15:31:42;;;;;;;9.73;4.50;;;13.80;99.90;;;;;;4962543;28;20823;-72
2021/10/24 15:34:11;;;;;;;5.10;3.87;;;13.70;99.90;;;;;;4960951;28;20256;-72
2021/10/24 15:36:37;;;;;;;6.93;3.80;;;13.50;99.90;;;;;;4971700;28;20215;-72
2021/10/24 15:39:04;;;;;;;7.00;4.20;;;13.30;99.90;;;;;;4970327;28;20996;-72
2021/10/24 15:41:30;;;;;;;3.80;3.40;;;13.10;99.90;;;;;;4974231;28;20443;-74
2021/10/24 15:43:56;;;;;;;5.03;3.23;;;12.90;99.90;;;;;;4970461;28;20466;-71
2021/10/24 15:46:23;;;;;;;11.37;3.67;;;12.70;99.90;;;;;;4974201;28;20219;-72
2021/10/24 15:48:50;;;;;;;5.20;3.37;;;12.50;99.90;;;;;;4964841;28;20567;-73
2021/10/24 15:51:16;;;;;;;3.97;3.57;;;12.40;99.90;;;;;;4954583;28;20448;-72
2021/10/24 15:53:41;;;;;;;6.97;4.00;;;12.30;99.90;;;;;;4963279;28;20557;-72
2021/10/24 15:56:08;;;;;;;7.80;4.10;;;12.10;99.90;;;;;;4966796;28;20612;-71
2021/10/24 15:58:34;;;;;;;6.50;3.97;;;11.90;99.90;;;;;;4965643;28;20266;-72
2021/10/24 16:01:00;;;;;;;6.83;5.17;;;11.70;99.90;;;;;;4958230;28;20992;-71
2021/10/24 16:03:26;;;;;;;8.30;4.20;;;11.60;99.90;;;;;;4956185;28;20467;-72
2021/10/24 16:05:54;;;;;;;10.63;4.60;;;11.40;99.90;;;;;;4967257;28;20463;-71
2021/10/24 16:08:19;;;;;;;8.30;4.40;;;11.30;99.90;;;;;;4954084;28;20479;-72
2021/10/24 16:10:45;;;;;;;7.20;4.37;;;11.10;99.90;;;;;;4962034;28;20472;-72
2021/10/24 16:13:11;;;;;;;8.27;4.80;;;11.00;99.90;;;;;;4962592;28;20298;-72
2021/10/24 16:15:36;;;;;;;5.23;4.60;;;10.80;99.90;;;;;;4971770;28;20270;-71
2021/10/24 16:18:03;;;;;;;7.17;4.50;;;10.70;99.90;;;;;;4955620;28;20238;-72
2021/10/24 16:20:28;;;;;;;4.50;3.40;;;10.50;99.90;;;;;;4965573;28;20211;-71
2021/10/24 16:22:54;;;;;;;6.60;3.33;;;10.40;99.90;;;;;;4960862;28;20473;-71
2021/10/24 16:25:20;;;;;;;5.07;4.05;;;10.20;99.90;;;;;;4969150;28;20798;-71
2021/10/24 16:27:46;;;;;;;5.72;3.67;;;10.10;99.90;;;;;;4971284;28;20434;-71
2021/10/24 16:30:12;;;;;;;5.40;4.47;;;9.90;99.90;;;;;;4971169;28;20273;-72
2021/10/24 16:32:39;;;;;;;9.60;5.57;;;9.70;99.90;;;;;;4961639;28;20222;-72
2021/10/24 16:35:06;;;;;;;7.90;6.10;;;9.60;99.90;;;;;;4968371;28;20975;-73
2021/10/24 16:37:36;;;;;;;8.73;6.70;;;9.50;99.90;;;;;;4971828;28;21052;-71
2021/10/24 16:40:13;;;;;;;5.63;5.03;;;9.40;99.90;;;;;;4966506;28;21084;-71
2021/10/24 16:42:39;;;;;;;6.53;5.90;;;9.20;99.90;;;;;;4965162;28;20470;-72
2021/10/24 16:45:06;;;;;;;3.97;3.67;;;9.20;99.90;;;;;;4971528;28;20539;-72
2021/10/24 16:47:32;;;;;;;5.33;3.43;;;9.10;99.90;;;;;;4955875;28;20453;-72
2021/10/24 16:49:59;;;;;;;3.93;3.67;;;9.00;99.90;;;;;;4953495;28;20479;-72
2021/10/24 16:52:27;;;;;;;12.53;6.97;;;8.80;99.90;;;;;;4953366;28;20495;-73
2021/10/24 16:54:53;;;;;;;4.60;4.20;;;8.70;99.90;;;;;;4965390;28;20469;-72
2021/10/24 16:57:19;;;;;;;4.50;4.10;;;8.70;99.90;;;;;;4953640;28;20500;-72
2021/10/24 16:59:46;;;;;;;4.60;4.20;;;8.60;99.90;;;;;;4953575;28;20466;-73
2021/10/24 17:02:12;;;;;;;4.67;4.00;;;8.50;99.90;;;;;;4953427;28;20460;-72
2021/10/24 17:04:38;;;;;;;8.13;4.10;;;8.40;99.90;;;;;;4953083;28;21049;-69
2021/10/24 17:07:05;;;;;;;8.03;4.50;;;8.30;99.90;;;;;;4953336;28;20226;-71
2021/10/24 17:09:31;;;;;;;7.20;4.97;;;8.20;99.90;;;;;;4953051;28;20474;-72
2021/10/24 17:11:57;;;;;;;6.00;4.43;;;8.10;99.90;;;;;;4954961;28;20433;-72
2021/10/24 17:14:23;;;;;;;7.07;5.07;;;8.00;99.90;;;;;;4963026;28;20281;-71
2021/10/24 17:16:49;;;;;;;6.20;4.80;;;8.00;99.90;;;;;;4955882;28;20502;-72
2021/10/24 17:19:14;;;;;;;7.33;5.10;;;7.80;99.90;;;;;;4953118;28;20680;-72
2021/10/24 17:21:40;;;;;;;4.50;4.13;;;7.80;99.90;;;;;;4956259;28;20253;-71
2021/10/24 17:24:06;;;;;;;10.90;4.17;;;7.70;99.90;;;;;;4957166;28;20707;-71
2021/10/24 17:26:32;;;;;;;8.83;5.93;;;7.70;99.90;;;;;;4965960;28;20268;-71
2021/10/24 17:28:58;;;;;;;13.07;5.80;;;7.60;99.90;;;;;;4966965;28;20471;-72
2021/10/24 17:31:23;;;;;;;5.67;4.77;;;7.60;99.90;;;;;;4972208;28;20516;-70
2021/10/24 17:33:49;;;;;;;8.83;5.50;;;7.50;99.90;;;;;;4954927;28;20230;-72